createdAt,value
2019-06-08T00:00:13.067Z,15.60
2019-06-08T00:01:16.508Z,15.50
2019-06-08T00:02:20.776Z,15.50
2019-06-08T00:03:24.344Z,15.50
2019-06-08T00:04:28.515Z,15.50
2019-06-08T00:05:32.091Z,15.50
2019-06-08T00:06:36.231Z,15.40
2019-06-08T00:07:39.790Z,15.30
2019-06-08T00:08:43.935Z,15.20
2019-06-08T00:09:47.535Z,15.20
2019-06-08T00:10:51.687Z,15.10
2019-06-08T00:11:55.251Z,15.10
2019-06-08T00:12:59.403Z,15.10
2019-06-08T00:14:02.980Z,15.10
2019-06-08T00:15:07.808Z,15.20
2019-06-08T00:16:11.375Z,15.20
2019-06-08T00:17:31.492Z,15.20
2019-06-08T00:18:21.535Z,15.10
2019-06-08T00:19:25.819Z,15.10
2019-06-08T00:20:29.383Z,15.10
2019-06-08T00:21:33.539Z,15.20
2019-06-08T00:22:37.275Z,15.20
2019-06-08T00:23:41.422Z,15.20
2019-06-08T00:24:45.032Z,15.20
2019-06-08T00:25:49.207Z,15.20
2019-06-08T00:26:52.771Z,15.30
2019-06-08T00:27:56.957Z,15.30
2019-06-08T00:29:00.526Z,15.40
2019-06-08T00:30:06.512Z,15.40
2019-06-08T00:31:10.110Z,15.40
2019-06-08T00:32:14.258Z,15.40
2019-06-08T00:33:18.576Z,15.40
2019-06-08T00:34:22.860Z,15.40
2019-06-08T00:35:26.415Z,15.40
2019-06-08T00:36:30.588Z,15.40
2019-06-08T00:37:34.126Z,15.40
2019-06-08T00:38:38.303Z,15.40
2019-06-08T00:39:41.872Z,15.40
2019-06-08T00:40:46.611Z,15.40
2019-06-08T00:41:50.190Z,15.30
2019-06-08T00:42:54.335Z,15.20
2019-06-08T00:43:57.900Z,15.20
2019-06-08T00:45:02.078Z,15.20
2019-06-08T00:46:05.658Z,15.20
2019-06-08T00:47:09.811Z,15.20
2019-06-08T00:48:13.372Z,15.10
2019-06-08T00:49:18.291Z,15.00
2019-06-08T00:50:22.958Z,15.00
2019-06-08T00:51:27.145Z,14.90
2019-06-08T00:52:30.707Z,14.90
2019-06-08T00:53:34.854Z,14.90
2019-06-08T00:54:38.443Z,14.90
2019-06-08T00:55:42.610Z,14.80
2019-06-08T00:56:46.200Z,14.90
2019-06-08T00:57:50.424Z,14.90
2019-06-08T00:58:53.991Z,14.90
2019-06-08T00:59:58.147Z,14.80
2019-06-08T01:01:01.712Z,14.80
2019-06-08T01:02:05.896Z,14.70
2019-06-08T01:03:09.456Z,14.70
2019-06-08T01:04:13.604Z,14.70
2019-06-08T01:05:17.829Z,14.70
2019-06-08T01:06:22.986Z,14.70
2019-06-08T01:07:26.564Z,14.60
2019-06-08T01:08:30.711Z,14.60
2019-06-08T01:09:34.287Z,14.70
2019-06-08T01:10:38.434Z,14.70
2019-06-08T01:11:42.039Z,14.70
2019-06-08T01:12:46.188Z,14.60
2019-06-08T01:13:49.754Z,14.60
2019-06-08T01:14:53.935Z,14.70
2019-06-08T01:15:57.499Z,14.60
2019-06-08T01:17:01.643Z,14.70
2019-06-08T01:18:05.379Z,14.70
2019-06-08T01:19:09.563Z,14.70
2019-06-08T01:20:13.332Z,14.70
2019-06-08T01:21:17.488Z,14.70
2019-06-08T01:22:21.600Z,14.70
2019-06-08T01:23:25.734Z,14.70
2019-06-08T01:24:30.007Z,14.70
2019-06-08T01:25:34.167Z,14.80
2019-06-08T01:26:37.758Z,14.80
2019-06-08T01:27:41.913Z,14.80
2019-06-08T01:28:45.479Z,14.80
2019-06-08T01:29:49.627Z,14.80
2019-06-08T01:30:53.243Z,14.80
2019-06-08T01:31:57.387Z,14.80
2019-06-08T01:33:00.991Z,14.80
2019-06-08T01:34:05.305Z,14.80
2019-06-08T01:35:09.211Z,14.80
2019-06-08T01:36:13.357Z,14.80
2019-06-08T01:37:16.924Z,14.80
2019-06-08T01:38:21.114Z,14.70
2019-06-08T01:39:25.153Z,14.70
2019-06-08T01:40:29.570Z,14.70
2019-06-08T01:41:33.187Z,14.70
2019-06-08T01:42:37.343Z,14.70
2019-06-08T01:43:40.941Z,14.60
2019-06-08T01:44:45.082Z,14.70
2019-06-08T01:45:48.651Z,14.70
2019-06-08T01:46:52.832Z,14.70
2019-06-08T01:47:56.395Z,14.70
2019-06-08T01:49:00.552Z,14.70
2019-06-08T01:50:05.951Z,14.70
2019-06-08T01:51:10.130Z,14.70
2019-06-08T01:52:13.699Z,14.60
2019-06-08T01:53:18.026Z,14.60
2019-06-08T01:54:22.752Z,14.60
2019-06-08T01:55:27.071Z,14.60
2019-06-08T01:56:31.215Z,14.50
2019-06-08T01:57:35.472Z,14.60
2019-06-08T01:58:39.082Z,14.60
2019-06-08T01:59:43.231Z,14.60
2019-06-08T02:00:47.131Z,14.60
2019-06-08T02:01:51.322Z,14.60
2019-06-08T02:02:54.960Z,14.60
2019-06-08T02:03:59.108Z,14.60
2019-06-08T02:05:02.675Z,14.60
2019-06-08T02:06:06.895Z,14.50
2019-06-08T02:07:10.495Z,14.50
2019-06-08T02:08:14.642Z,14.50
2019-06-08T02:09:18.237Z,14.50
2019-06-08T02:10:22.531Z,14.50
2019-06-08T02:11:26.711Z,14.60
2019-06-08T02:12:31.216Z,14.60
2019-06-08T02:13:35.267Z,14.60
2019-06-08T02:14:39.525Z,14.50
2019-06-08T02:15:43.162Z,14.50
2019-06-08T02:16:47.332Z,14.50
2019-06-08T02:17:50.928Z,14.60
2019-06-08T02:18:55.075Z,14.60
2019-06-08T02:19:58.643Z,14.60
2019-06-08T02:21:02.786Z,14.60
2019-06-08T02:22:06.356Z,14.50
2019-06-08T02:23:10.552Z,14.50
2019-06-08T02:24:14.121Z,14.50
2019-06-08T02:25:18.646Z,14.50
2019-06-08T02:26:22.287Z,14.50
2019-06-08T02:27:27.247Z,14.50
2019-06-08T02:28:31.557Z,14.50
2019-06-08T02:29:35.868Z,14.50
2019-06-08T02:30:41.911Z,14.50
2019-06-08T02:31:47.944Z,14.50
2019-06-08T02:32:50.462Z,14.50
2019-06-08T02:33:54.618Z,14.50
2019-06-08T02:34:58.208Z,14.50
2019-06-08T02:36:02.436Z,14.50
2019-06-08T02:37:06.009Z,14.50
2019-06-08T02:38:10.228Z,14.60
2019-06-08T02:39:13.811Z,14.60
2019-06-08T02:40:19.687Z,14.60
2019-06-08T02:41:23.280Z,14.60
2019-06-08T02:42:28.498Z,14.60
2019-06-08T02:43:33.347Z,14.60
2019-06-08T02:44:37.528Z,14.60
2019-06-08T02:45:41.440Z,14.60
2019-06-08T02:46:45.691Z,14.70
2019-06-08T02:47:49.292Z,14.70
2019-06-08T02:49:03.610Z,14.70
2019-06-08T02:49:58.657Z,14.70
2019-06-08T02:51:02.966Z,14.60
2019-06-08T02:52:06.632Z,14.60
2019-06-08T02:53:10.811Z,14.60
2019-06-08T02:54:14.521Z,14.50
2019-06-08T02:55:18.737Z,14.50
2019-06-08T02:56:23.511Z,14.50
2019-06-08T02:57:30.974Z,14.50
2019-06-08T02:58:36.938Z,14.50
2019-06-08T02:59:42.864Z,14.50
2019-06-08T03:00:50.554Z,14.50
2019-06-08T03:01:56.169Z,14.40
2019-06-08T03:03:00.140Z,14.40
2019-06-08T03:04:04.644Z,14.40
2019-06-08T03:05:08.468Z,14.40
2019-06-08T03:06:14.215Z,14.50
2019-06-08T03:07:19.935Z,14.50
2019-06-08T03:08:25.684Z,14.40
2019-06-08T03:09:30.501Z,14.40
2019-06-08T03:10:37.223Z,14.40
2019-06-08T03:11:41.904Z,14.40
2019-06-08T03:12:46.783Z,14.50
2019-06-08T03:13:52.041Z,14.50
2019-06-08T03:14:55.953Z,14.50
2019-06-08T03:15:59.535Z,14.50
2019-06-08T03:17:03.751Z,14.50
2019-06-08T03:18:07.764Z,14.50
2019-06-08T03:19:21.469Z,14.50
2019-06-08T03:20:17.172Z,14.50
2019-06-08T03:21:21.364Z,14.40
2019-06-08T03:22:24.952Z,14.40
2019-06-08T03:23:29.114Z,14.40
2019-06-08T03:24:34.362Z,14.40
2019-06-08T03:25:50.786Z,14.40
2019-06-08T03:26:44.133Z,14.40
2019-06-08T03:27:48.499Z,14.40
2019-06-08T03:28:52.084Z,14.40
2019-06-08T03:29:56.253Z,14.40
2019-06-08T03:30:59.864Z,14.40
2019-06-08T03:32:04.061Z,14.40
2019-06-08T03:33:07.628Z,14.40
2019-06-08T03:34:11.789Z,14.40
2019-06-08T03:35:15.397Z,14.40
2019-06-08T03:36:19.560Z,14.40
2019-06-08T03:37:23.168Z,14.40
2019-06-08T03:38:27.347Z,14.50
2019-06-08T03:39:30.929Z,14.40
2019-06-08T03:40:35.869Z,14.40
2019-06-08T03:41:40.500Z,14.40
2019-06-08T03:42:45.040Z,14.40
2019-06-08T03:43:48.624Z,14.40
2019-06-08T03:44:52.801Z,14.40
2019-06-08T03:45:56.381Z,14.40
2019-06-08T03:47:00.599Z,14.30
2019-06-08T03:48:04.172Z,14.40
2019-06-08T03:49:08.343Z,14.40
2019-06-08T03:50:12.055Z,14.40
2019-06-08T03:51:16.344Z,14.40
2019-06-08T03:52:19.944Z,14.40
2019-06-08T03:53:24.108Z,14.40
2019-06-08T03:54:27.695Z,14.40
2019-06-08T03:55:31.859Z,14.40
2019-06-08T03:56:35.825Z,14.50
2019-06-08T03:57:40.475Z,14.50
2019-06-08T03:58:47.783Z,14.50
2019-06-08T03:59:51.313Z,14.50
2019-06-08T04:00:54.935Z,14.50
2019-06-08T04:01:59.092Z,14.50
2019-06-08T04:03:02.677Z,14.50
2019-06-08T04:04:06.875Z,14.50
2019-06-08T04:05:10.589Z,14.50
2019-06-08T04:06:14.756Z,14.50
2019-06-08T04:07:18.342Z,14.50
2019-06-08T04:08:22.504Z,14.40
2019-06-08T04:09:26.191Z,14.50
2019-06-08T04:10:30.358Z,14.50
2019-06-08T04:11:33.945Z,14.40
2019-06-08T04:12:39.735Z,14.50
2019-06-08T04:13:44.710Z,14.50
2019-06-08T04:14:50.441Z,14.50
2019-06-08T04:15:54.129Z,14.50
2019-06-08T04:16:58.292Z,14.50
2019-06-08T04:18:01.913Z,14.50
2019-06-08T04:19:06.109Z,14.50
2019-06-08T04:20:11.951Z,14.50
2019-06-08T04:21:15.731Z,14.40
2019-06-08T04:22:19.320Z,14.40
2019-06-08T04:23:23.523Z,14.40
2019-06-08T04:24:27.106Z,14.40
2019-06-08T04:25:31.303Z,14.50
2019-06-08T04:26:34.943Z,14.50
2019-06-08T04:27:40.438Z,14.50
2019-06-08T04:28:44.733Z,14.50
2019-06-08T04:29:50.178Z,14.50
2019-06-08T04:30:53.850Z,14.50
2019-06-08T04:31:58.054Z,14.50
2019-06-08T04:33:01.671Z,14.50
2019-06-08T04:34:05.924Z,14.50
2019-06-08T04:35:10.320Z,14.50
2019-06-08T04:36:14.490Z,14.40
2019-06-08T04:37:18.089Z,14.40
2019-06-08T04:38:22.284Z,14.50
2019-06-08T04:39:25.875Z,14.50
2019-06-08T04:40:30.060Z,14.50
2019-06-08T04:41:33.675Z,14.50
2019-06-08T04:42:39.311Z,14.50
2019-06-08T04:43:44.887Z,14.50
2019-06-08T04:44:49.397Z,14.50
2019-06-08T04:45:53.089Z,14.50
2019-06-08T04:46:57.256Z,14.50
2019-06-08T04:48:00.908Z,14.60
2019-06-08T04:49:05.181Z,14.60
2019-06-08T04:50:21.634Z,14.60
2019-06-08T04:51:14.642Z,14.60
2019-06-08T04:52:18.262Z,14.60
2019-06-08T04:53:22.426Z,14.60
2019-06-08T04:54:26.076Z,14.60
2019-06-08T04:55:30.261Z,14.60
2019-06-08T04:56:33.839Z,14.60
2019-06-08T04:57:39.350Z,14.70
2019-06-08T04:58:45.965Z,14.70
2019-06-08T04:59:50.405Z,14.70
2019-06-08T05:00:54.105Z,14.60
2019-06-08T05:01:58.293Z,14.60
2019-06-08T05:03:01.933Z,14.70
2019-06-08T05:04:06.102Z,14.70
2019-06-08T05:05:10.052Z,14.70
2019-06-08T05:06:14.217Z,14.70
2019-06-08T05:07:17.800Z,14.60
2019-06-08T05:08:22.031Z,14.60
2019-06-08T05:09:25.644Z,14.60
2019-06-08T05:10:29.815Z,14.60
2019-06-08T05:11:36.304Z,14.70
2019-06-08T05:12:39.349Z,14.70
2019-06-08T05:13:43.302Z,14.70
2019-06-08T05:14:47.649Z,14.80
2019-06-08T05:15:51.233Z,14.70
2019-06-08T05:16:55.396Z,14.80
2019-06-08T05:17:58.992Z,14.80
2019-06-08T05:19:03.192Z,14.80
2019-06-08T05:20:08.250Z,14.80
2019-06-08T05:21:12.412Z,14.70
2019-06-08T05:22:16.001Z,14.70
2019-06-08T05:23:20.177Z,14.70
2019-06-08T05:24:23.747Z,14.70
2019-06-08T05:25:27.952Z,14.70
2019-06-08T05:26:31.656Z,14.80
2019-06-08T05:27:35.842Z,14.80
2019-06-08T05:28:39.424Z,14.90
2019-06-08T05:29:43.583Z,14.90
2019-06-08T05:30:47.416Z,15.00
2019-06-08T05:31:51.709Z,15.10
2019-06-08T05:32:55.298Z,15.10
2019-06-08T05:33:59.460Z,15.20
2019-06-08T05:35:04.072Z,15.20
2019-06-08T05:36:08.235Z,15.30
2019-06-08T05:37:11.825Z,15.30
2019-06-08T05:38:16.002Z,15.30
2019-06-08T05:39:19.618Z,15.40
2019-06-08T05:40:23.856Z,15.40
2019-06-08T05:41:27.441Z,15.40
2019-06-08T05:42:31.605Z,15.40
2019-06-08T05:43:35.188Z,15.40
2019-06-08T05:44:39.625Z,15.40
2019-06-08T05:45:45.639Z,15.40
2019-06-08T05:46:50.117Z,15.40
2019-06-08T05:47:53.742Z,15.30
2019-06-08T05:48:58.051Z,15.30
2019-06-08T05:50:01.641Z,15.40
2019-06-08T05:51:05.865Z,15.40
2019-06-08T05:52:09.476Z,15.40
2019-06-08T05:53:13.632Z,15.40
2019-06-08T05:54:17.208Z,15.40
2019-06-08T05:55:21.383Z,15.50
2019-06-08T05:56:24.963Z,15.50
2019-06-08T05:57:29.652Z,15.50
2019-06-08T05:58:33.227Z,15.50
2019-06-08T05:59:37.404Z,15.50
2019-06-08T06:00:42.143Z,15.40
2019-06-08T06:01:46.738Z,15.40
2019-06-08T06:02:51.014Z,15.40
2019-06-08T06:03:55.179Z,15.30
2019-06-08T06:04:58.768Z,15.30
2019-06-08T06:06:02.973Z,15.30
2019-06-08T06:07:06.569Z,15.30
2019-06-08T06:08:18.870Z,15.30
2019-06-08T06:09:16.038Z,15.30
2019-06-08T06:10:20.939Z,15.30
2019-06-08T06:11:24.519Z,15.30
2019-06-08T06:12:28.693Z,15.30
2019-06-08T06:13:32.327Z,15.30
2019-06-08T06:14:37.011Z,15.20
2019-06-08T06:15:40.990Z,15.20
2019-06-08T06:16:45.219Z,15.20
2019-06-08T06:17:49.846Z,15.20
2019-06-08T06:18:54.412Z,15.20
2019-06-08T06:19:58.013Z,15.20
2019-06-08T06:21:11.238Z,15.10
2019-06-08T06:22:07.456Z,15.10
2019-06-08T06:23:11.668Z,15.00
2019-06-08T06:24:15.248Z,15.00
2019-06-08T06:25:19.411Z,15.00
2019-06-08T06:26:22.995Z,14.90
2019-06-08T06:27:27.199Z,14.80
2019-06-08T06:28:30.783Z,14.80
2019-06-08T06:29:34.964Z,14.80
2019-06-08T06:30:38.549Z,15.00
2019-06-08T06:31:43.702Z,14.90
2019-06-08T06:32:47.788Z,15.00
2019-06-08T06:33:52.431Z,15.00
2019-06-08T06:34:56.128Z,15.00
2019-06-08T06:36:00.287Z,15.10
2019-06-08T06:37:03.944Z,15.10
2019-06-08T06:38:08.220Z,15.20
2019-06-08T06:39:11.804Z,15.20
2019-06-08T06:40:16.528Z,15.30
2019-06-08T06:41:20.088Z,15.40
2019-06-08T06:42:25.185Z,15.50
2019-06-08T06:43:28.964Z,15.50
2019-06-08T06:44:33.141Z,15.60
2019-06-08T06:45:36.748Z,15.70
2019-06-08T06:46:41.848Z,15.80
2019-06-08T06:47:46.372Z,15.80
2019-06-08T06:48:50.801Z,15.80
2019-06-08T06:49:54.382Z,15.90
2019-06-08T06:50:58.553Z,15.90
2019-06-08T06:52:02.212Z,16.00
2019-06-08T06:53:06.381Z,16.10
2019-06-08T06:54:10.008Z,16.10
2019-06-08T06:55:14.241Z,16.10
2019-06-08T06:56:17.852Z,16.10
2019-06-08T06:57:22.015Z,16.10
2019-06-08T06:58:25.681Z,16.10
2019-06-08T06:59:29.859Z,16.10
2019-06-08T07:00:33.838Z,16.00
2019-06-08T07:01:38.108Z,16.00
2019-06-08T07:02:41.834Z,16.00
2019-06-08T07:03:46.080Z,16.00
2019-06-08T07:04:50.005Z,16.00
2019-06-08T07:05:54.415Z,16.10
2019-06-08T07:06:58.033Z,16.20
2019-06-08T07:08:02.239Z,16.20
2019-06-08T07:09:06.895Z,16.30
2019-06-08T07:10:11.138Z,16.30
2019-06-08T07:11:14.735Z,16.40
2019-06-08T07:12:18.903Z,16.30
2019-06-08T07:13:22.488Z,16.30
2019-06-08T07:14:27.037Z,16.30
2019-06-08T07:15:30.759Z,16.20
2019-06-08T07:16:34.933Z,16.10
2019-06-08T07:17:38.520Z,16.20
2019-06-08T07:18:42.723Z,16.30
2019-06-08T07:19:46.434Z,16.30
2019-06-08T07:20:50.686Z,16.40
2019-06-08T07:21:54.767Z,16.40
2019-06-08T07:22:59.100Z,16.60
2019-06-08T07:24:02.673Z,16.60
2019-06-08T07:25:07.811Z,16.50
2019-06-08T07:26:11.467Z,16.50
2019-06-08T07:27:15.632Z,16.50
2019-06-08T07:28:19.256Z,16.50
2019-06-08T07:29:23.423Z,16.50
2019-06-08T07:30:27.057Z,16.50
2019-06-08T07:31:31.247Z,16.40
2019-06-08T07:32:34.831Z,16.30
2019-06-08T07:33:39.037Z,16.20
2019-06-08T07:34:42.660Z,16.30
2019-06-08T07:35:48.405Z,16.30
2019-06-08T07:36:53.239Z,16.40
2019-06-08T07:37:57.635Z,16.50
2019-06-08T07:39:01.226Z,16.60
2019-06-08T07:40:07.375Z,16.70
2019-06-08T07:41:11.026Z,16.80
2019-06-08T07:42:15.183Z,16.90
2019-06-08T07:43:18.807Z,16.80
2019-06-08T07:44:22.984Z,16.60
2019-06-08T07:45:26.567Z,16.60
2019-06-08T07:46:30.738Z,16.70
2019-06-08T07:47:34.323Z,16.70
2019-06-08T07:48:38.522Z,16.70
2019-06-08T07:49:42.116Z,16.60
2019-06-08T07:50:46.286Z,16.60
2019-06-08T07:52:04.097Z,16.50
2019-06-08T07:52:56.645Z,16.40
2019-06-08T07:54:00.301Z,16.30
2019-06-08T07:55:05.724Z,16.30
2019-06-08T07:56:09.293Z,16.30
2019-06-08T07:57:13.491Z,16.30
2019-06-08T07:58:17.082Z,16.20
2019-06-08T07:59:21.253Z,16.30
2019-06-08T08:00:24.940Z,16.20
2019-06-08T08:01:36.113Z,16.20
2019-06-08T08:02:34.329Z,16.30
2019-06-08T08:03:38.507Z,16.40
2019-06-08T08:04:42.084Z,16.40
2019-06-08T08:05:46.288Z,16.50
2019-06-08T08:06:50.367Z,16.50
2019-06-08T08:07:54.831Z,16.60
2019-06-08T08:08:58.897Z,16.50
2019-06-08T08:10:03.502Z,16.50
2019-06-08T08:11:07.202Z,16.40
2019-06-08T08:12:12.351Z,16.40
2019-06-08T08:13:16.139Z,16.30
2019-06-08T08:14:20.316Z,16.30
2019-06-08T08:15:23.999Z,16.40
2019-06-08T08:16:28.176Z,16.40
2019-06-08T08:17:34.268Z,16.40
2019-06-08T08:18:37.592Z,16.40
2019-06-08T08:19:41.219Z,16.30
2019-06-08T08:20:45.402Z,16.30
2019-06-08T08:21:51.816Z,16.30
2019-06-08T08:22:59.643Z,16.30
2019-06-08T08:24:01.474Z,16.30
2019-06-08T08:25:08.195Z,16.40
2019-06-08T08:26:12.125Z,16.40
2019-06-08T08:27:17.892Z,16.50
2019-06-08T08:28:21.733Z,16.50
2019-06-08T08:29:28.140Z,16.50
2019-06-08T08:30:31.207Z,16.50
2019-06-08T08:31:37.294Z,16.50
2019-06-08T08:32:40.649Z,16.50
2019-06-08T08:33:44.953Z,16.50
2019-06-08T08:34:50.354Z,16.60
2019-06-08T08:35:55.505Z,16.50
2019-06-08T08:37:05.919Z,16.50
2019-06-08T08:38:07.374Z,16.50
2019-06-08T08:39:10.518Z,16.50
2019-06-08T08:40:14.762Z,16.50
2019-06-08T08:41:18.416Z,16.50
2019-06-08T08:42:22.636Z,16.50
2019-06-08T08:43:28.048Z,16.50
2019-06-08T08:44:32.085Z,16.50
2019-06-08T08:45:37.321Z,16.50
2019-06-08T08:46:41.536Z,16.50
2019-06-08T08:47:45.220Z,16.60
2019-06-08T08:48:50.962Z,16.60
2019-06-08T08:49:56.072Z,16.60
2019-06-08T08:51:03.505Z,16.60
2019-06-08T08:52:08.782Z,16.60
2019-06-08T08:53:12.019Z,16.60
2019-06-08T08:54:18.142Z,16.60
2019-06-08T08:55:21.464Z,16.60
2019-06-08T08:56:25.051Z,16.60
2019-06-08T08:57:29.228Z,16.70
2019-06-08T08:58:32.827Z,16.80
2019-06-08T08:59:38.157Z,16.80
2019-06-08T09:00:42.098Z,16.70
2019-06-08T09:01:48.140Z,16.80
2019-06-08T09:03:07.129Z,16.90
2019-06-08T09:04:02.940Z,16.90
2019-06-08T09:05:03.722Z,16.90
2019-06-08T09:06:08.708Z,17.20
2019-06-08T09:07:12.948Z,17.20
2019-06-08T09:08:18.228Z,17.20
2019-06-08T09:09:21.998Z,17.30
2019-06-08T09:10:28.072Z,17.20
2019-06-08T09:11:31.464Z,17.10
2019-06-08T09:12:37.705Z,17.00
2019-06-08T09:13:41.199Z,17.00
2019-06-08T09:14:47.747Z,16.90
2019-06-08T09:15:52.291Z,16.90
2019-06-08T09:16:59.829Z,17.00
2019-06-08T09:18:03.697Z,17.10
2019-06-08T09:19:08.461Z,17.20
2019-06-08T09:20:15.932Z,17.30
2019-06-08T09:21:18.755Z,17.50
2019-06-08T09:22:22.558Z,17.80
2019-06-08T09:23:28.056Z,18.00
2019-06-08T09:24:31.890Z,18.10
2019-06-08T09:25:37.373Z,18.00
2019-06-08T09:26:41.318Z,17.80
2019-06-08T09:27:47.940Z,17.80
2019-06-08T09:28:51.700Z,17.80
2019-06-08T09:29:59.372Z,17.90
2019-06-08T09:31:02.782Z,18.00
2019-06-08T09:32:08.343Z,18.10
2019-06-08T09:33:12.129Z,18.30
2019-06-08T09:34:19.290Z,18.40
2019-06-08T09:35:21.679Z,18.50
2019-06-08T09:36:28.480Z,18.60
2019-06-08T09:37:31.337Z,18.60
2019-06-08T09:38:35.526Z,18.50
2019-06-08T09:39:39.102Z,18.20
2019-06-08T09:40:43.372Z,18.20
2019-06-08T09:41:47.984Z,18.30
2019-06-08T09:42:57.216Z,18.20
2019-06-08T09:44:00.553Z,18.20
2019-06-08T09:45:05.503Z,18.30
2019-06-08T09:46:09.443Z,18.40
2019-06-08T09:47:13.797Z,18.40
2019-06-08T09:48:18.185Z,18.50
2019-06-08T09:49:22.654Z,18.50
2019-06-08T09:50:27.808Z,18.50
2019-06-08T09:51:32.105Z,18.60
2019-06-08T09:52:35.748Z,18.60
2019-06-08T09:53:41.593Z,18.60
2019-06-08T09:54:47.994Z,18.50
2019-06-08T09:55:51.170Z,18.40
2019-06-08T09:56:55.773Z,18.30
2019-06-08T09:58:05.015Z,18.30
2019-06-08T09:59:10.054Z,18.30
2019-06-08T10:00:18.004Z,18.30
2019-06-08T10:01:18.470Z,18.30
2019-06-08T10:02:22.764Z,18.30
2019-06-08T10:03:28.159Z,18.30
2019-06-08T10:04:32.301Z,18.30
2019-06-08T10:05:38.640Z,18.50
2019-06-08T10:06:41.724Z,18.60
2019-06-08T10:07:45.355Z,18.70
2019-06-08T10:08:49.484Z,18.80
2019-06-08T10:09:54.190Z,18.90
2019-06-08T10:11:01.050Z,19.00
2019-06-08T10:12:04.988Z,19.00
2019-06-08T10:13:10.227Z,18.80
2019-06-08T10:14:14.008Z,18.60
2019-06-08T10:15:18.425Z,18.40
2019-06-08T10:16:22.023Z,18.40
2019-06-08T10:17:27.883Z,18.40
2019-06-08T10:18:31.492Z,18.50
2019-06-08T10:19:35.665Z,18.60
2019-06-08T10:20:40.140Z,18.70
2019-06-08T10:21:44.364Z,18.80
2019-06-08T10:22:49.954Z,18.80
2019-06-08T10:23:54.824Z,18.90
2019-06-08T10:25:02.817Z,18.90
2019-06-08T10:26:05.165Z,19.00
2019-06-08T10:27:11.584Z,19.00
2019-06-08T10:28:19.135Z,18.90
2019-06-08T10:29:20.790Z,18.80
2019-06-08T10:30:25.034Z,18.70
2019-06-08T10:31:39.054Z,18.60
2019-06-08T10:32:34.713Z,18.60
2019-06-08T10:33:40.515Z,18.60
2019-06-08T10:34:44.159Z,18.80
2019-06-08T10:35:48.074Z,18.90
2019-06-08T10:36:52.379Z,18.90
2019-06-08T10:37:57.772Z,18.80
2019-06-08T10:39:05.695Z,18.80
2019-06-08T10:40:07.913Z,18.70
2019-06-08T10:41:17.847Z,18.80
2019-06-08T10:42:18.064Z,18.80
2019-06-08T10:43:22.369Z,18.80
2019-06-08T10:44:28.247Z,18.80
2019-06-08T10:45:31.801Z,18.90
2019-06-08T10:46:35.425Z,19.00
2019-06-08T10:47:41.333Z,19.00
2019-06-08T10:48:44.941Z,19.00
2019-06-08T10:49:49.110Z,19.00
2019-06-08T10:50:52.707Z,19.10
2019-06-08T10:52:01.182Z,19.10
2019-06-08T10:53:04.080Z,19.10
2019-06-08T10:54:09.426Z,19.00
2019-06-08T10:55:13.975Z,19.00
2019-06-08T10:56:18.847Z,19.00
2019-06-08T10:57:22.590Z,18.90
2019-06-08T10:58:28.361Z,18.80
2019-06-08T10:59:32.044Z,18.70
2019-06-08T11:00:38.698Z,18.70
2019-06-08T11:01:41.439Z,18.80
2019-06-08T11:02:48.700Z,18.70
2019-06-08T11:03:50.925Z,18.60
2019-06-08T11:04:55.118Z,18.80
2019-06-08T11:06:00.742Z,18.90
2019-06-08T11:07:09.599Z,19.00
2019-06-08T11:08:14.173Z,19.20
2019-06-08T11:09:18.605Z,19.20
2019-06-08T11:10:21.087Z,19.40
2019-06-08T11:11:25.281Z,19.70
2019-06-08T11:12:28.913Z,19.80
2019-06-08T11:13:33.089Z,19.90
2019-06-08T11:14:38.204Z,19.80
2019-06-08T11:15:42.712Z,19.50
2019-06-08T11:16:47.571Z,19.40
2019-06-08T11:17:51.889Z,19.20
2019-06-08T11:18:55.475Z,19.00
2019-06-08T11:20:02.226Z,18.90
2019-06-08T11:21:07.224Z,18.90
2019-06-08T11:22:14.329Z,18.90
2019-06-08T11:23:18.723Z,18.90
2019-06-08T11:24:25.249Z,19.00
2019-06-08T11:25:28.021Z,18.90
2019-06-08T11:26:32.276Z,18.80
2019-06-08T11:27:38.642Z,18.80
2019-06-08T11:28:41.732Z,18.70
2019-06-08T11:29:47.643Z,18.50
2019-06-08T11:30:51.204Z,18.40
2019-06-08T11:31:54.795Z,18.50
2019-06-08T11:32:59.863Z,18.60
2019-06-08T11:34:04.038Z,18.80
2019-06-08T11:35:12.345Z,19.00
2019-06-08T11:36:15.022Z,19.20
2019-06-08T11:37:21.101Z,19.40
2019-06-08T11:38:24.538Z,19.40
2019-06-08T11:39:28.830Z,19.50
2019-06-08T11:40:32.572Z,19.50
2019-06-08T11:41:36.768Z,19.50
2019-06-08T11:42:40.561Z,19.50
2019-06-08T11:43:44.721Z,19.50
2019-06-08T11:44:51.023Z,19.50
2019-06-08T11:45:54.313Z,19.40
2019-06-08T11:46:57.881Z,19.30
2019-06-08T11:48:02.732Z,19.20
2019-06-08T11:49:10.832Z,19.10
2019-06-08T11:50:13.382Z,19.30
2019-06-08T11:51:17.202Z,19.20
2019-06-08T11:52:21.424Z,19.10
2019-06-08T11:53:25.082Z,19.20
2019-06-08T11:54:36.558Z,19.10
2019-06-08T11:55:34.544Z,19.00
2019-06-08T11:56:40.386Z,19.10
2019-06-08T11:57:44.552Z,19.00
2019-06-08T11:58:50.328Z,19.10
2019-06-08T11:59:55.258Z,19.00
2019-06-08T12:01:04.607Z,19.00
2019-06-08T12:02:10.525Z,19.20
2019-06-08T12:03:13.154Z,19.20
2019-06-08T12:04:18.390Z,19.20
2019-06-08T12:05:22.850Z,19.30
2019-06-08T12:06:26.481Z,19.30
2019-06-08T12:07:30.736Z,19.10
2019-06-08T12:08:34.308Z,19.10
2019-06-08T12:09:38.475Z,19.00
2019-06-08T12:10:42.070Z,19.00
2019-06-08T12:11:48.052Z,18.90
2019-06-08T12:12:51.544Z,18.90
2019-06-08T12:13:58.332Z,19.00
2019-06-08T12:15:00.966Z,18.80
2019-06-08T12:16:05.203Z,18.80
2019-06-08T12:17:12.145Z,18.70
2019-06-08T12:18:14.654Z,18.60
2019-06-08T12:19:20.843Z,18.60
2019-06-08T12:20:24.515Z,18.60
2019-06-08T12:21:28.297Z,18.60
2019-06-08T12:22:32.473Z,18.40
2019-06-08T12:23:36.081Z,18.40
2019-06-08T12:24:42.422Z,18.40
2019-06-08T12:25:45.491Z,18.60
2019-06-08T12:26:52.666Z,18.90
2019-06-08T12:27:54.948Z,19.10
2019-06-08T12:29:01.381Z,19.30
2019-06-08T12:30:13.080Z,19.30
2019-06-08T12:31:15.676Z,19.30
2019-06-08T12:32:18.416Z,19.40
2019-06-08T12:33:23.002Z,19.40
2019-06-08T12:34:28.076Z,19.30
2019-06-08T12:35:32.367Z,19.30
2019-06-08T12:36:37.570Z,19.20
2019-06-08T12:37:41.824Z,19.10
2019-06-08T12:38:45.413Z,19.00
2019-06-08T12:39:49.627Z,18.80
2019-06-08T12:40:53.226Z,18.80
2019-06-08T12:41:58.301Z,18.80
2019-06-08T12:43:01.979Z,18.70
2019-06-08T12:44:09.325Z,18.70
2019-06-08T12:45:11.673Z,18.70
2019-06-08T12:46:16.914Z,18.70
2019-06-08T12:47:26.529Z,18.70
2019-06-08T12:48:28.741Z,18.80
2019-06-08T12:49:32.454Z,18.70
2019-06-08T12:50:38.644Z,18.70
2019-06-08T12:51:42.275Z,18.70
2019-06-08T12:52:47.628Z,18.70
2019-06-08T12:53:51.447Z,18.80
2019-06-08T12:55:03.388Z,18.70
2019-06-08T12:56:00.889Z,18.70
2019-06-08T12:57:05.144Z,18.70
2019-06-08T12:58:11.206Z,18.50
2019-06-08T12:59:17.001Z,18.60
2019-06-08T13:00:22.051Z,18.60
2019-06-08T13:01:28.180Z,18.60
2019-06-08T13:02:31.460Z,18.70
2019-06-08T13:03:37.675Z,18.90
2019-06-08T13:04:40.916Z,19.10
2019-06-08T13:05:45.163Z,19.30
2019-06-08T13:06:48.753Z,19.40
2019-06-08T13:07:52.926Z,19.50
2019-06-08T13:08:57.741Z,19.50
2019-06-08T13:10:02.121Z,19.50
2019-06-08T13:11:07.757Z,19.40
2019-06-08T13:12:11.591Z,19.30
2019-06-08T13:13:18.908Z,19.20
2019-06-08T13:14:21.112Z,19.20
2019-06-08T13:15:24.713Z,19.10
2019-06-08T13:16:28.876Z,19.00
2019-06-08T13:17:34.007Z,19.00
2019-06-08T13:18:40.719Z,18.90
2019-06-08T13:19:43.456Z,18.90
2019-06-08T13:20:51.376Z,18.80
2019-06-08T13:21:52.869Z,18.80
2019-06-08T13:22:57.577Z,18.80
2019-06-08T13:24:02.323Z,18.80
2019-06-08T13:25:19.193Z,18.80
2019-06-08T13:26:15.164Z,18.80
2019-06-08T13:27:21.601Z,18.80
2019-06-08T13:28:25.524Z,19.00
2019-06-08T13:29:29.616Z,19.00
2019-06-08T13:30:33.207Z,19.00
2019-06-08T13:31:38.331Z,19.10
2019-06-08T13:32:42.011Z,19.10
2019-06-08T13:33:48.384Z,19.10
2019-06-08T13:34:51.474Z,19.10
2019-06-08T13:35:57.838Z,19.10
2019-06-08T13:37:00.894Z,19.30
2019-06-08T13:38:05.060Z,19.30
2019-06-08T13:39:11.278Z,19.40
2019-06-08T13:40:15.301Z,19.30
2019-06-08T13:41:22.320Z,19.20
2019-06-08T13:42:24.800Z,19.20
2019-06-08T13:43:28.412Z,19.10
2019-06-08T13:44:32.587Z,19.10
2019-06-08T13:45:39.122Z,19.10
2019-06-08T13:46:42.081Z,19.10
2019-06-08T13:47:45.714Z,19.30
2019-06-08T13:48:49.829Z,19.40